Time;durP1;ratioP1;P1;durP2;ratioP2;P2;SDS_P1;SDS_P2;PMS_P1;PMS_P2;Temp;Humidity;BMP_temperature;BMP_pressure;BME280_temperature;BME280_humidity;BME280_pressure;Samples;Min_cycle;Max_cycle;Signal;HPM_P1;HPM_P2
2023/01/08 00:00:46;;;;;;;19.25;11.25;;;;;;;;;;5035486;28;20071;-66
2023/01/08 00:03:13;;;;;;;16.90;10.70;;;;;;;;;;5040569;28;20514;-65
2023/01/08 00:05:40;;;;;;;22.15;12.38;;;;;;;;;;5037289;28;20537;-65
2023/01/08 00:08:07;;;;;;;18.45;11.13;;;;;;;;;;5042342;28;20103;-66
2023/01/08 00:10:34;;;;;;;18.35;11.43;;;;;;;;;;5034318;28;20076;-65
2023/01/08 00:13:01;;;;;;;19.85;15.52;;;;;;;;;;5040061;28;20590;-66
2023/01/08 00:15:29;;;;;;;15.80;10.10;;;;;;;;;;5037691;28;20045;-66
2023/01/08 00:17:56;;;;;;;26.48;14.30;;;;;;;;;;5041066;28;20044;-66
2023/01/08 00:20:23;;;;;;;19.92;11.05;;;;;;;;;;5037913;28;20051;-67
2023/01/08 00:22:50;;;;;;;17.10;12.50;;;;;;;;;;5038628;28;20635;-66
2023/01/08 00:25:17;;;;;;;19.05;11.35;;;;;;;;;;5034407;28;20121;-66
2023/01/08 00:27:44;;;;;;;23.90;12.55;;;;;;;;;;5039984;28;20554;-66
2023/01/08 00:30:11;;;;;;;20.33;14.43;;;;;;;;;;5042225;28;20041;-67
2023/01/08 00:32:38;;;;;;;20.45;11.52;;;;;;;;;;5039168;28;20044;-65
2023/01/08 00:35:05;;;;;;;25.13;14.20;;;;;;;;;;5045046;28;20098;-67
2023/01/08 00:37:31;;;;;;;17.88;12.15;;;;;;;;;;5040940;28;20572;-65
2023/01/08 00:39:58;;;;;;;21.65;12.88;;;;;;;;;;5046151;28;20139;-66
2023/01/08 00:42:24;;;;;;;17.80;11.05;;;;;;;;;;5040697;28;20529;-66
2023/01/08 00:44:51;;;;;;;21.42;12.75;;;;;;;;;;5047540;28;20048;-66
2023/01/08 00:47:18;;;;;;;18.85;10.93;;;;;;;;;;5043702;28;20048;-66
2023/01/08 00:49:44;;;;;;;22.42;12.75;;;;;;;;;;5039723;28;20052;-66
2023/01/08 00:52:11;;;;;;;24.02;17.52;;;;;;;;;;5038868;28;20700;-66
2023/01/08 00:54:37;;;;;;;21.58;13.02;;;;;;;;;;5042913;28;20055;-65
2023/01/08 00:57:04;;;;;;;21.25;13.75;;;;;;;;;;5043020;28;20642;-65
2023/01/08 00:59:31;;;;;;;24.35;11.68;;;;;;;;;;5040437;28;20041;-65
2023/01/08 01:01:57;;;;;;;21.50;13.10;;;;;;;;;;5045143;28;20045;-65
2023/01/08 01:04:25;;;;;;;21.02;12.43;;;;;;;;;;5039503;28;21227;-65
2023/01/08 01:06:51;;;;;;;20.25;13.27;;;;;;;;;;5045324;28;20053;-66
2023/01/08 01:09:18;;;;;;;21.45;14.88;;;;;;;;;;5037684;28;20049;-66
2023/01/08 01:11:45;;;;;;;19.58;11.98;;;;;;;;;;5044009;28;20685;-65
2023/01/08 01:14:12;;;;;;;20.70;12.60;;;;;;;;;;5042506;28;20045;-66
2023/01/08 01:16:40;;;;;;;19.95;11.93;;;;;;;;;;5040223;28;20049;-65
2023/01/08 01:19:07;;;;;;;26.90;13.45;;;;;;;;;;5038107;28;20033;-65
2023/01/08 01:21:34;;;;;;;23.52;14.38;;;;;;;;;;5040284;28;20052;-65
2023/01/08 01:24:02;;;;;;;26.38;13.75;;;;;;;;;;5041375;28;20037;-65
2023/01/08 01:26:29;;;;;;;27.38;13.63;;;;;;;;;;5036198;28;20056;-65
2023/01/08 01:28:57;;;;;;;26.77;13.52;;;;;;;;;;5046834;28;20045;-65
2023/01/08 01:31:24;;;;;;;21.48;13.77;;;;;;;;;;5041780;28;20072;-65
2023/01/08 01:33:51;;;;;;;27.20;14.43;;;;;;;;;;5041122;28;20058;-65
2023/01/08 01:36:19;;;;;;;24.20;13.27;;;;;;;;;;5046306;28;20037;-65
2023/01/08 01:38:47;;;;;;;20.90;13.63;;;;;;;;;;5045973;28;20055;-65
2023/01/08 01:41:28;;;;;;;24.48;12.52;;;;;;;;;;5041846;28;20072;-65
2023/01/08 01:43:56;;;;;;;22.83;12.82;;;;;;;;;;5043102;28;20138;-65
2023/01/08 01:46:36;;;;;;;18.08;12.73;;;;;;;;;;5038124;28;20049;-65
2023/01/08 01:49:23;;;;;;;20.73;11.80;;;;;;;;;;5043582;28;20099;-65
2023/01/08 01:51:52;;;;;;;18.25;13.40;;;;;;;;;;5040627;28;20150;-65
2023/01/08 01:54:18;;;;;;;20.55;11.45;;;;;;;;;;5044262;28;20047;-64
2023/01/08 01:56:45;;;;;;;18.70;10.80;;;;;;;;;;5037222;28;20881;-66
2023/01/08 01:59:12;;;;;;;17.90;10.48;;;;;;;;;;5036354;28;20429;-66
2023/01/08 02:01:40;;;;;;;20.80;11.00;;;;;;;;;;5038549;28;20044;-65
2023/01/08 02:04:07;;;;;;;;;;;;;;;;;;5043684;28;20136;-66
2023/01/08 02:06:58;;;;;;;15.68;10.18;;;;;;;;;;5039936;28;19924;-66
2023/01/08 02:09:24;;;;;;;20.88;10.23;;;;;;;;;;5036707;28;20045;-65
2023/01/08 02:12:15;;;;;;;15.35;9.93;;;;;;;;;;5037735;28;20434;-65
2023/01/08 02:14:54;;;;;;;15.68;10.77;;;;;;;;;;5036706;28;20049;-65
2023/01/08 02:17:27;;;;;;;19.10;10.15;;;;;;;;;;5041042;28;20076;-65
2023/01/08 02:19:57;;;;;;;18.67;10.35;;;;;;;;;;5040451;28;20048;-65
2023/01/08 02:22:42;;;;;;;17.75;10.55;;;;;;;;;;5040584;28;20458;-65
2023/01/08 02:25:24;;;;;;;19.13;10.07;;;;;;;;;;5035036;28;20497;-65
2023/01/08 02:27:52;;;;;;;19.05;9.95;;;;;;;;;;5037557;28;20065;-64
2023/01/08 02:30:19;;;;;;;22.02;10.95;;;;;;;;;;5040471;28;20044;-65
2023/01/08 02:32:46;;;;;;;18.10;10.55;;;;;;;;;;5039939;28;20107;-64
2023/01/08 02:35:12;;;;;;;19.77;12.32;;;;;;;;;;5036802;28;20041;-64
2023/01/08 02:37:39;;;;;;;18.38;11.65;;;;;;;;;;5040883;28;20041;-64
2023/01/08 02:40:08;;;;;;;22.20;13.05;;;;;;;;;;5039265;28;20041;-66
2023/01/08 02:42:54;;;;;;;22.30;14.98;;;;;;;;;;5043772;28;20347;-65
2023/01/08 02:45:27;;;;;;;22.35;13.70;;;;;;;;;;5038106;28;20067;-65
2023/01/08 02:47:58;;;;;;;29.52;14.75;;;;;;;;;;5042299;28;20053;-65
2023/01/08 02:50:29;;;;;;;26.58;13.35;;;;;;;;;;5035562;28;20041;-65
2023/01/08 02:52:59;;;;;;;25.23;12.48;;;;;;;;;;5041669;28;20052;-64
2023/01/08 02:55:27;;;;;;;18.52;10.63;;;;;;;;;;5037528;28;20041;-65
2023/01/08 02:57:53;;;;;;;18.02;10.60;;;;;;;;;;5043301;28;20162;-65
2023/01/08 03:00:20;;;;;;;21.08;10.27;;;;;;;;;;5042008;28;20579;-65
2023/01/08 03:02:48;;;;;;;15.63;9.90;;;;;;;;;;5040868;28;20159;-65
2023/01/08 03:05:16;;;;;;;;;;;;;;;;;;5040914;28;20204;-64
2023/01/08 03:07:42;;;;;;;16.73;8.80;;;;;;;;;;5041562;28;19921;-65
2023/01/08 03:10:09;;;;;;;16.27;11.43;;;;;;;;;;5048863;28;20147;-64
2023/01/08 03:12:49;;;;;;;14.68;9.10;;;;;;;;;;5044777;28;20049;-66
2023/01/08 03:15:19;;;;;;;15.00;10.10;;;;;;;;;;5047384;28;20044;-65
2023/01/08 03:17:48;;;;;;;20.67;11.15;;;;;;;;;;5037894;28;20368;-65
2023/01/08 03:20:17;;;;;;;12.88;9.63;;;;;;;;;;5040692;28;20045;-65
2023/01/08 03:22:46;;;;;;;14.57;8.40;;;;;;;;;;5034858;28;20044;-65
2023/01/08 03:25:13;;;;;;;;;;;;;;;;;;5042976;28;20037;-65
2023/01/08 03:27:41;;;;;;;13.15;7.43;;;;;;;;;;5033770;28;19931;-65
2023/01/08 03:30:09;;;;;;;15.57;9.50;;;;;;;;;;5039417;28;20538;-66
2023/01/08 03:32:36;;;;;;;14.73;9.35;;;;;;;;;;5037044;28;20041;-65
2023/01/08 03:35:05;;;;;;;15.60;10.25;;;;;;;;;;5038865;28;20049;-65
2023/01/08 03:37:34;;;;;;;14.27;8.57;;;;;;;;;;5039096;28;20037;-65
2023/01/08 03:40:04;;;;;;;16.25;8.40;;;;;;;;;;5037830;28;20138;-66
2023/01/08 03:42:31;;;;;;;13.73;8.82;;;;;;;;;;5035261;28;20041;-64
2023/01/08 03:45:01;;;;;;;12.65;8.13;;;;;;;;;;5036185;28;20522;-65
2023/01/08 03:47:29;;;;;;;13.10;9.80;;;;;;;;;;5044162;28;20037;-65
2023/01/08 03:49:56;;;;;;;17.70;8.68;;;;;;;;;;5036282;28;20067;-65
2023/01/08 03:52:24;;;;;;;18.27;8.75;;;;;;;;;;5042131;28;20053;-65
2023/01/08 03:54:50;;;;;;;17.50;8.40;;;;;;;;;;5039346;28;20049;-65
2023/01/08 03:57:17;;;;;;;12.65;8.35;;;;;;;;;;5041714;28;20203;-65
2023/01/08 03:59:44;;;;;;;15.20;8.32;;;;;;;;;;5034926;28;20098;-65
2023/01/08 04:02:10;;;;;;;19.35;13.27;;;;;;;;;;5044623;28;20738;-65
2023/01/08 04:04:37;;;;;;;14.45;9.55;;;;;;;;;;5043315;28;20162;-64
2023/01/08 04:07:04;;;;;;;14.98;8.77;;;;;;;;;;5045781;28;20049;-64
2023/01/08 04:09:30;;;;;;;15.40;9.00;;;;;;;;;;5039356;28;20208;-65
2023/01/08 04:11:57;;;;;;;18.13;9.07;;;;;;;;;;5043255;28;20561;-66
2023/01/08 04:14:24;;;;;;;17.08;9.73;;;;;;;;;;5040249;28;20064;-68
2023/01/08 04:16:52;;;;;;;15.60;9.13;;;;;;;;;;5038047;28;20053;-66
2023/01/08 04:19:20;;;;;;;13.38;8.38;;;;;;;;;;5043949;28;20474;-65
2023/01/08 04:21:48;;;;;;;12.57;7.90;;;;;;;;;;5041482;28;20119;-65
2023/01/08 04:24:15;;;;;;;13.05;8.65;;;;;;;;;;5044477;28;20052;-65
2023/01/08 04:26:42;;;;;;;14.02;8.93;;;;;;;;;;5036600;28;20033;-65
2023/01/08 04:29:10;;;;;;;13.18;9.23;;;;;;;;;;5044595;28;20053;-65
2023/01/08 04:31:36;;;;;;;12.07;7.88;;;;;;;;;;5039849;28;21317;-65
2023/01/08 04:34:03;;;;;;;15.32;8.77;;;;;;;;;;5041187;28;20069;-65
2023/01/08 04:36:29;;;;;;;15.18;11.93;;;;;;;;;;5038670;28;20876;-65
2023/01/08 04:38:56;;;;;;;15.73;9.15;;;;;;;;;;5043582;28;20090;-65
2023/01/08 04:41:22;;;;;;;15.45;8.02;;;;;;;;;;5038879;28;20067;-65
2023/01/08 04:43:49;;;;;;;14.88;8.23;;;;;;;;;;5044440;28;20103;-65
2023/01/08 04:46:16;;;;;;;13.48;8.23;;;;;;;;;;5040642;28;20049;-65
2023/01/08 04:48:42;;;;;;;14.05;9.57;;;;;;;;;;5039506;28;20041;-64
2023/01/08 04:51:09;;;;;;;15.98;12.07;;;;;;;;;;5040605;28;20098;-65
2023/01/08 04:53:36;;;;;;;26.58;16.30;;;;;;;;;;5046283;28;20696;-65
2023/01/08 04:56:07;;;;;;;21.60;12.23;;;;;;;;;;5043015;28;20103;-65
2023/01/08 04:58:34;;;;;;;21.42;13.35;;;;;;;;;;5040226;28;20052;-64
2023/01/08 05:01:08;;;;;;;21.02;12.23;;;;;;;;;;5040966;28;20047;-65
2023/01/08 05:03:35;;;;;;;23.33;13.68;;;;;;;;;;5041063;28;20059;-65
2023/01/08 05:06:02;;;;;;;16.70;13.63;;;;;;;;;;5042085;28;20483;-65
2023/01/08 05:08:28;;;;;;;19.10;10.77;;;;;;;;;;5043289;28;20056;-64
2023/01/08 05:10:57;;;;;;;14.68;8.57;;;;;;;;;;5038205;28;20037;-64
2023/01/08 05:13:24;;;;;;;;;;;;;;;;;;5041948;28;20045;-65
2023/01/08 05:15:50;;;;;;;15.23;7.72;;;;;;;;;;5038828;28;20426;-66
2023/01/08 05:18:17;;;;;;;15.45;8.80;;;;;;;;;;5040339;28;20132;-65
2023/01/08 05:20:44;;;;;;;18.63;9.88;;;;;;;;;;5040645;28;20064;-65
2023/01/08 05:23:10;;;;;;;17.02;9.88;;;;;;;;;;5041781;28;20033;-65
2023/01/08 05:25:37;;;;;;;15.60;8.48;;;;;;;;;;5044931;28;20048;-66
2023/01/08 05:28:04;;;;;;;19.42;10.95;;;;;;;;;;5032706;28;20041;-65
2023/01/08 05:30:30;;;;;;;13.98;9.45;;;;;;;;;;5037521;28;20052;-65
2023/01/08 05:32:57;;;;;;;14.18;8.30;;;;;;;;;;5041807;28;20168;-66
2023/01/08 05:35:24;;;;;;;16.45;10.77;;;;;;;;;;5037558;28;20069;-65
2023/01/08 05:37:51;;;;;;;19.98;10.68;;;;;;;;;;5042565;28;20584;-65
2023/01/08 05:40:17;;;;;;;17.20;11.40;;;;;;;;;;5034826;28;20152;-68
2023/01/08 05:42:44;;;;;;;18.08;11.15;;;;;;;;;;5034451;28;20160;-68
2023/01/08 05:45:10;;;;;;;16.42;11.98;;;;;;;;;;5040931;28;20049;-69
2023/01/08 05:47:37;;;;;;;19.40;13.00;;;;;;;;;;5046270;28;20040;-68
2023/01/08 05:50:04;;;;;;;18.42;16.35;;;;;;;;;;5041101;28;20621;-68
2023/01/08 05:52:31;;;;;;;14.88;10.95;;;;;;;;;;5041952;28;20513;-69
2023/01/08 05:54:59;;;;;;;17.98;11.18;;;;;;;;;;5044697;28;20033;-70
2023/01/08 05:57:25;;;;;;;15.38;9.38;;;;;;;;;;5037709;28;20835;-69
2023/01/08 05:59:52;;;;;;;14.15;11.55;;;;;;;;;;5037414;28;20053;-68
2023/01/08 06:02:18;;;;;;;15.07;10.07;;;;;;;;;;5045119;28;20068;-67
2023/01/08 06:04:46;;;;;;;20.10;12.75;;;;;;;;;;5039980;28;20040;-67
2023/01/08 06:07:13;;;;;;;19.65;12.20;;;;;;;;;;5040097;28;20052;-69
2023/01/08 06:09:39;;;;;;;18.55;11.18;;;;;;;;;;5044779;28;20048;-69
2023/01/08 06:12:06;;;;;;;76.10;41.03;;;;;;;;;;5040185;28;20126;-69
2023/01/08 06:14:33;;;;;;;30.08;16.85;;;;;;;;;;5036983;28;20056;-69
2023/01/08 06:16:59;;;;;;;20.50;16.90;;;;;;;;;;5036145;28;20048;-69
2023/01/08 06:19:26;;;;;;;44.80;32.17;;;;;;;;;;5048321;28;20737;-70
2023/01/08 06:21:53;;;;;;;51.03;31.80;;;;;;;;;;5040028;28;20049;-68
2023/01/08 06:24:19;;;;;;;43.63;28.30;;;;;;;;;;5041558;28;20739;-68
2023/01/08 06:26:46;;;;;;;38.83;22.00;;;;;;;;;;5037766;28;20041;-68
2023/01/08 06:29:13;;;;;;;38.35;21.77;;;;;;;;;;5042096;28;20106;-68
2023/01/08 06:31:39;;;;;;;38.67;24.83;;;;;;;;;;5042486;28;20060;-69
2023/01/08 06:34:06;;;;;;;48.30;26.83;;;;;;;;;;5041219;28;20123;-70
2023/01/08 06:36:33;;;;;;;36.83;25.52;;;;;;;;;;5044489;28;20037;-71
2023/01/08 06:38:59;;;;;;;32.47;22.55;;;;;;;;;;5039338;28;20698;-70
2023/01/08 06:41:26;;;;;;;30.95;22.88;;;;;;;;;;5046347;28;20128;-68
2023/01/08 06:43:53;;;;;;;39.03;21.63;;;;;;;;;;5043371;28;20041;-69
2023/01/08 06:46:19;;;;;;;34.97;22.45;;;;;;;;;;5046237;28;20056;-69
2023/01/08 06:48:46;;;;;;;28.45;20.52;;;;;;;;;;5042956;28;20082;-69
2023/01/08 06:51:12;;;;;;;36.58;26.52;;;;;;;;;;5038766;28;20053;-69
2023/01/08 06:53:39;;;;;;;27.92;20.13;;;;;;;;;;5047025;28;20553;-69
2023/01/08 06:56:09;;;;;;;30.40;20.88;;;;;;;;;;5041717;28;20043;-70
2023/01/08 06:58:37;;;;;;;35.70;23.80;;;;;;;;;;5051230;28;20044;-68
2023/01/08 07:01:04;;;;;;;27.63;21.63;;;;;;;;;;5038674;28;20047;-69
2023/01/08 07:03:32;;;;;;;34.70;20.55;;;;;;;;;;5048970;28;20053;-69
2023/01/08 07:06:00;;;;;;;32.90;21.60;;;;;;;;;;5039948;28;20051;-70
2023/01/08 07:08:27;;;;;;;25.13;18.15;;;;;;;;;;5039808;28;20114;-69
2023/01/08 07:10:54;;;;;;;25.00;16.75;;;;;;;;;;5042312;28;20040;-69
2023/01/08 07:13:22;;;;;;;36.38;24.42;;;;;;;;;;5043572;28;20037;-70
2023/01/08 07:15:49;;;;;;;49.83;29.15;;;;;;;;;;5048100;28;20110;-70
2023/01/08 07:18:15;;;;;;;35.88;24.77;;;;;;;;;;5037624;28;20037;-69
2023/01/08 07:20:42;;;;;;;35.10;23.20;;;;;;;;;;5045866;28;20053;-69
2023/01/08 07:23:09;;;;;;;33.40;24.52;;;;;;;;;;5036757;28;20128;-69
2023/01/08 07:25:36;;;;;;;38.03;24.30;;;;;;;;;;5046394;28;20655;-69
2023/01/08 07:28:03;;;;;;;36.10;22.75;;;;;;;;;;5035794;28;20120;-70
2023/01/08 07:30:29;;;;;;;68.55;37.08;;;;;;;;;;5047443;28;20116;-70
2023/01/08 07:32:57;;;;;;;33.75;20.25;;;;;;;;;;5037688;28;20075;-70
2023/01/08 07:35:24;;;;;;;34.97;24.88;;;;;;;;;;5043049;28;20628;-70
2023/01/08 07:37:50;;;;;;;31.80;21.05;;;;;;;;;;5044779;28;20539;-68
2023/01/08 07:40:17;;;;;;;28.55;20.55;;;;;;;;;;5049052;28;20078;-70
2023/01/08 07:42:43;;;;;;;42.20;25.88;;;;;;;;;;5049801;28;20106;-71
2023/01/08 07:45:10;;;;;;;49.75;31.52;;;;;;;;;;5047457;28;20048;-70
2023/01/08 07:47:37;;;;;;;36.35;27.40;;;;;;;;;;5051703;28;20585;-69
2023/01/08 07:50:04;;;;;;;57.95;38.95;;;;;;;;;;5041396;28;20504;-69
2023/01/08 07:52:30;;;;;;;34.67;23.25;;;;;;;;;;5045560;28;20037;-67
2023/01/08 07:54:57;;;;;;;40.65;26.38;;;;;;;;;;5041145;28;20645;-67
2023/01/08 07:57:23;;;;;;;17.95;11.75;;;;;;;;;;5043655;28;20048;-67
2023/01/08 07:59:50;;;;;;;34.15;22.50;;;;;;;;;;5042568;28;20045;-67
2023/01/08 08:02:17;;;;;;;27.83;17.27;;;;;;;;;;5050361;28;20064;-67
2023/01/08 08:04:43;;;;;;;26.73;15.10;;;;;;;;;;5050657;28;20078;-68
2023/01/08 08:07:10;;;;;;;43.63;23.63;;;;;;;;;;5046230;28;20782;-67
2023/01/08 08:09:37;;;;;;;25.70;15.68;;;;;;;;;;5045183;28;20313;-69
2023/01/08 08:12:03;;;;;;;27.05;18.52;;;;;;;;;;5049429;28;20582;-67
2023/01/08 08:14:30;;;;;;;24.25;15.23;;;;;;;;;;5041987;28;20049;-67
2023/01/08 08:16:56;;;;;;;20.30;12.73;;;;;;;;;;5040098;28;20033;-68
2023/01/08 08:19:24;;;;;;;21.17;14.07;;;;;;;;;;5047343;28;20139;-68
2023/01/08 08:21:50;;;;;;;36.63;21.75;;;;;;;;;;5038695;28;20048;-68
2023/01/08 08:24:17;;;;;;;24.40;15.45;;;;;;;;;;5043638;28;20542;-68
2023/01/08 08:26:44;;;;;;;26.73;16.70;;;;;;;;;;5041044;28;20044;-69
2023/01/08 08:29:10;;;;;;;25.27;16.48;;;;;;;;;;5043118;28;20047;-68
2023/01/08 08:31:37;;;;;;;25.38;16.10;;;;;;;;;;5045575;28;20037;-68
2023/01/08 08:34:05;;;;;;;27.27;16.10;;;;;;;;;;5044685;28;20069;-68
2023/01/08 08:36:32;;;;;;;26.85;17.40;;;;;;;;;;5042289;28;21344;-69
2023/01/08 08:38:58;;;;;;;27.67;17.88;;;;;;;;;;5044812;28;20072;-69
2023/01/08 08:41:25;;;;;;;28.65;17.58;;;;;;;;;;5045312;28;20144;-68
2023/01/08 08:43:52;;;;;;;24.00;15.30;;;;;;;;;;5044864;28;20289;-69
2023/01/08 08:46:18;;;;;;;28.80;15.75;;;;;;;;;;5045106;28;20041;-69
2023/01/08 08:48:45;;;;;;;35.13;25.67;;;;;;;;;;5043613;28;20780;-69
2023/01/08 08:51:12;;;;;;;26.77;17.08;;;;;;;;;;5050644;28;20045;-70
2023/01/08 08:53:39;;;;;;;24.50;18.98;;;;;;;;;;5044020;28;20756;-69
2023/01/08 08:56:05;;;;;;;24.20;14.23;;;;;;;;;;5051785;28;20036;-69
2023/01/08 08:58:32;;;;;;;28.42;15.75;;;;;;;;;;5041371;28;20060;-69
2023/01/08 09:01:02;;;;;;;25.30;16.65;;;;;;;;;;5049983;28;20075;-69
2023/01/08 09:03:29;;;;;;;26.33;16.52;;;;;;;;;;5044969;28;20047;-69
2023/01/08 09:05:56;;;;;;;27.38;17.25;;;;;;;;;;5052506;28;20048;-69
2023/01/08 09:08:25;;;;;;;21.27;14.55;;;;;;;;;;5047222;28;20041;-69
2023/01/08 09:10:52;;;;;;;25.33;15.60;;;;;;;;;;5044726;28;20045;-69
2023/01/08 09:13:18;;;;;;;23.17;15.07;;;;;;;;;;5040773;28;20067;-69
2023/01/08 09:15:45;;;;;;;28.08;16.25;;;;;;;;;;5039720;28;20688;-68
2023/01/08 09:18:11;;;;;;;21.27;14.00;;;;;;;;;;5050895;28;20043;-68
2023/01/08 09:20:41;;;;;;;23.70;15.00;;;;;;;;;;5042556;28;20033;-68
2023/01/08 09:23:08;;;;;;;20.48;14.25;;;;;;;;;;5049832;28;20053;-68
2023/01/08 09:25:34;;;;;;;20.02;13.57;;;;;;;;;;5040139;28;20103;-68
2023/01/08 09:28:03;;;;;;;27.42;14.43;;;;;;;;;;5042458;28;20041;-69
2023/01/08 09:30:30;;;;;;;21.42;13.57;;;;;;;;;;5044577;28;20037;-68
2023/01/08 09:32:57;;;;;;;19.90;13.15;;;;;;;;;;5043542;28;20044;-69
2023/01/08 09:35:27;;;;;;;24.23;18.60;;;;;;;;;;5046363;28;20677;-69
2023/01/08 09:37:54;;;;;;;20.88;13.68;;;;;;;;;;5050353;28;20144;-69
2023/01/08 09:40:23;;;;;;;24.77;14.98;;;;;;;;;;5049423;28;20045;-70
2023/01/08 09:42:54;;;;;;;25.27;18.90;;;;;;;;;;5041356;28;20629;-69
2023/01/08 09:45:25;;;;;;;23.40;15.93;;;;;;;;;;5040260;28;20049;-69
2023/01/08 09:47:56;;;;;;;22.35;15.38;;;;;;;;;;5037289;28;20052;-69
2023/01/08 09:50:25;;;;;;;21.92;14.10;;;;;;;;;;5046393;28;20742;-68
2023/01/08 09:52:51;;;;;;;20.25;13.65;;;;;;;;;;5042618;28;20130;-68
2023/01/08 09:55:18;;;;;;;22.92;13.95;;;;;;;;;;5051421;28;20053;-68
2023/01/08 09:57:46;;;;;;;21.98;14.32;;;;;;;;;;5044591;28;20124;-68
2023/01/08 10:00:18;;;;;;;23.23;13.90;;;;;;;;;;5043416;28;20045;-68
2023/01/08 10:02:45;;;;;;;24.05;13.93;;;;;;;;;;5047640;28;20044;-68
2023/01/08 10:05:13;;;;;;;22.40;14.88;;;;;;;;;;5048617;28;20053;-68
2023/01/08 10:07:40;;;;;;;22.48;14.80;;;;;;;;;;5045228;28;20055;-68
2023/01/08 10:10:17;;;;;;;24.52;13.68;;;;;;;;;;5046123;28;20067;-68
2023/01/08 10:12:44;;;;;;;21.20;18.10;;;;;;;;;;5042470;28;20045;-69
2023/01/08 10:15:13;;;;;;;19.70;16.92;;;;;;;;;;5048593;28;20102;-68
2023/01/08 10:17:41;;;;;;;18.98;14.20;;;;;;;;;;5044217;28;20528;-68
2023/01/08 10:20:19;;;;;;;21.65;14.48;;;;;;;;;;5047687;28;20045;-68
2023/01/08 10:22:46;;;;;;;21.90;16.02;;;;;;;;;;5043125;28;20037;-68
2023/01/08 10:25:15;;;;;;;34.63;22.17;;;;;;;;;;5039745;28;20045;-68
2023/01/08 10:27:49;;;;;;;29.65;16.17;;;;;;;;;;5039904;28;20072;-68
2023/01/08 10:30:27;;;;;;;24.15;14.73;;;;;;;;;;5044027;28;20055;-68
2023/01/08 10:32:55;;;;;;;21.65;17.00;;;;;;;;;;5047195;28;20037;-68
2023/01/08 10:35:27;;;;;;;25.55;18.50;;;;;;;;;;5042512;28;20668;-67
2023/01/08 10:37:55;;;;;;;21.50;15.75;;;;;;;;;;5046669;28;20041;-68
2023/01/08 10:40:22;;;;;;;21.58;15.25;;;;;;;;;;5041226;28;20052;-68
2023/01/08 10:42:49;;;;;;;28.10;18.45;;;;;;;;;;5044648;28;20049;-68
2023/01/08 10:45:18;;;;;;;27.23;17.25;;;;;;;;;;5042138;28;20548;-68
2023/01/08 10:47:46;;;;;;;24.35;16.75;;;;;;;;;;5044451;28;20049;-68
2023/01/08 10:50:18;;;;;;;21.08;14.68;;;;;;;;;;5039895;28;20049;-68
2023/01/08 10:52:51;;;;;;;22.70;12.68;;;;;;;;;;5049742;28;20048;-68
2023/01/08 10:55:24;;;;;;;22.75;15.13;;;;;;;;;;5042841;28;20041;-68
2023/01/08 10:57:53;;;;;;;20.98;15.27;;;;;;;;;;5043112;28;20131;-69
2023/01/08 11:00:24;;;;;;;18.27;12.38;;;;;;;;;;5039358;28;20736;-68
2023/01/08 11:02:50;;;;;;;18.85;12.77;;;;;;;;;;5042394;28;20054;-68
2023/01/08 11:05:17;;;;;;;20.55;13.20;;;;;;;;;;5041308;28;20053;-68
2023/01/08 11:07:47;;;;;;;21.98;16.02;;;;;;;;;;5039238;28;20535;-68
2023/01/08 11:10:21;;;;;;;28.23;17.67;;;;;;;;;;5044665;28;20593;-69
2023/01/08 11:12:53;;;;;;;20.80;15.05;;;;;;;;;;5036307;28;20037;-68
2023/01/08 11:15:19;;;;;;;24.10;15.65;;;;;;;;;;5038867;28;20112;-68
2023/01/08 11:17:46;;;;;;;23.30;14.73;;;;;;;;;;5038402;28;20534;-68
2023/01/08 11:20:21;;;;;;;25.48;18.20;;;;;;;;;;5048416;28;20135;-68
2023/01/08 11:22:48;;;;;;;23.17;17.17;;;;;;;;;;5045408;28;20041;-69
2023/01/08 11:25:20;;;;;;;24.15;16.92;;;;;;;;;;5044372;28;20060;-68
2023/01/08 11:27:47;;;;;;;28.15;17.00;;;;;;;;;;5039112;28;20145;-67
2023/01/08 11:30:18;;;;;;;24.83;16.88;;;;;;;;;;5043730;28;20553;-67
2023/01/08 11:33:01;;;;;;;23.75;16.08;;;;;;;;;;5036857;28;20045;-68
2023/01/08 11:35:47;;;;;;;27.30;16.63;;;;;;;;;;5041040;28;20056;-68
2023/01/08 11:38:15;;;;;;;23.83;15.93;;;;;;;;;;5038967;28;20083;-66
2023/01/08 11:40:54;;;;;;;22.88;16.30;;;;;;;;;;5034946;28;20048;-67
2023/01/08 11:43:23;;;;;;;29.08;20.60;;;;;;;;;;5036634;28;20321;-67
2023/01/08 11:45:57;;;;;;;27.27;19.33;;;;;;;;;;5041742;28;20052;-69
2023/01/08 11:48:39;;;;;;;27.05;16.75;;;;;;;;;;5035800;28;20555;-69
2023/01/08 11:51:21;;;;;;;27.08;16.90;;;;;;;;;;5040478;28;20049;-69
2023/01/08 11:54:19;;;;;;;24.95;15.23;;;;;;;;;;5034758;28;20048;-69
2023/01/08 11:56:48;;;;;;;24.33;17.73;;;;;;;;;;5042657;28;20036;-68
2023/01/08 11:59:21;;;;;;;27.17;17.73;;;;;;;;;;5037017;28;20708;-69
2023/01/08 12:01:56;;;;;;;24.17;17.08;;;;;;;;;;5042732;28;20045;-69
2023/01/08 12:04:22;;;;;;;21.55;14.45;;;;;;;;;;5039989;28;20060;-69
2023/01/08 12:06:59;;;;;;;25.35;18.42;;;;;;;;;;5046726;28;20444;-69
2023/01/08 12:09:25;;;;;;;23.90;16.70;;;;;;;;;;5039274;28;20068;-69
2023/01/08 12:11:57;;;;;;;21.13;15.55;;;;;;;;;;5046129;28;20053;-69
2023/01/08 12:14:36;;;;;;;25.27;16.38;;;;;;;;;;5033616;28;20546;-69
2023/01/08 12:17:11;;;;;;;24.83;15.68;;;;;;;;;;5034894;28;20049;-68
2023/01/08 12:19:52;;;;;;;25.58;19.73;;;;;;;;;;5035237;28;20656;-69
2023/01/08 12:22:31;;;;;;;26.17;22.48;;;;;;;;;;5037052;28;20044;-69
2023/01/08 12:25:07;;;;;;;21.30;14.35;;;;;;;;;;5039314;28;20041;-68
2023/01/08 12:27:34;;;;;;;22.45;19.60;;;;;;;;;;5034600;28;20045;-70
2023/01/08 12:30:26;;;;;;;21.13;13.98;;;;;;;;;;5042513;28;20047;-69
2023/01/08 12:32:59;;;;;;;21.08;15.27;;;;;;;;;;5034485;28;20050;-68
2023/01/08 12:35:30;;;;;;;19.35;14.93;;;;;;;;;;5046385;28;20492;-69
2023/01/08 12:38:00;;;;;;;21.20;17.17;;;;;;;;;;5035467;28;20116;-70
2023/01/08 12:40:32;;;;;;;20.77;13.38;;;;;;;;;;5050545;28;20045;-68
2023/01/08 12:42:59;;;;;;;21.95;14.85;;;;;;;;;;5036745;28;20723;-69
2023/01/08 12:45:31;;;;;;;23.58;14.95;;;;;;;;;;5049098;28;20037;-69
2023/01/08 12:48:10;;;;;;;19.00;13.68;;;;;;;;;;5042063;28;20488;-69
2023/01/08 12:50:36;;;;;;;20.23;13.82;;;;;;;;;;5045486;28;20060;-70
2023/01/08 12:53:08;;;;;;;16.90;11.93;;;;;;;;;;5043938;28;20041;-70
2023/01/08 12:55:47;;;;;;;17.65;12.57;;;;;;;;;;5046667;28;20049;-70
2023/01/08 12:58:23;;;;;;;22.67;13.30;;;;;;;;;;5048609;28;20739;-69
2023/01/08 13:01:05;;;;;;;18.67;12.05;;;;;;;;;;5045891;28;20881;-70
2023/01/08 13:03:32;;;;;;;20.27;12.13;;;;;;;;;;5032648;28;20521;-69
2023/01/08 13:06:06;;;;;;;20.10;11.25;;;;;;;;;;5043194;28;20053;-68
2023/01/08 13:08:33;;;;;;;37.35;21.17;;;;;;;;;;5044070;28;20126;-69
2023/01/08 13:11:01;;;;;;;19.25;14.07;;;;;;;;;;5042056;28;20052;-70
2023/01/08 13:13:27;;;;;;;17.73;14.10;;;;;;;;;;5038572;28;20549;-70
2023/01/08 13:16:18;;;;;;;19.67;13.52;;;;;;;;;;5042751;28;20048;-69
2023/01/08 13:19:02;;;;;;;18.85;14.13;;;;;;;;;;5042149;28;20120;-69
2023/01/08 13:21:31;;;;;;;18.98;13.25;;;;;;;;;;5042829;28;20642;-69
2023/01/08 13:23:58;;;;;;;22.33;18.83;;;;;;;;;;5048822;28;20120;-69
2023/01/08 13:26:30;;;;;;;16.83;10.55;;;;;;;;;;5039490;28;20114;-70
2023/01/08 13:29:07;;;;;;;18.55;13.70;;;;;;;;;;5036754;28;20036;-70
2023/01/08 13:31:42;;;;;;;16.23;13.15;;;;;;;;;;5044579;28;20668;-70
2023/01/08 13:34:19;;;;;;;17.52;14.07;;;;;;;;;;5045760;28;20036;-70
2023/01/08 13:36:56;;;;;;;20.73;14.40;;;;;;;;;;5045420;28;20407;-71
2023/01/08 13:39:30;;;;;;;17.15;11.10;;;;;;;;;;5045740;28;20116;-70
2023/01/08 13:42:16;;;;;;;16.70;10.80;;;;;;;;;;5041127;28;20049;-69
2023/01/08 13:44:51;;;;;;;17.00;13.73;;;;;;;;;;5040695;28;20672;-69
2023/01/08 13:47:17;;;;;;;;;;;;;;;;;;5043456;28;20048;-69
2023/01/08 13:49:44;;;;;;;;;;;;;;;;;;5049227;28;19929;-70
2023/01/08 13:52:10;;;;;;;;;;;;;;;;;;5040739;28;21291;-69
2023/01/08 13:54:41;;;;;;;24.48;11.93;;;;;;;;;;5046007;28;20413;-70
2023/01/08 13:57:15;;;;;;;21.85;14.35;;;;;;;;;;5038476;28;20725;-68
2023/01/08 13:59:46;;;;;;;22.73;15.82;;;;;;;;;;5036891;28;20041;-69
2023/01/08 14:02:30;;;;;;;17.90;11.40;;;;;;;;;;5048929;28;20045;-69
2023/01/08 14:04:57;;;;;;;16.45;10.27;;;;;;;;;;5046092;28;20076;-70
2023/01/08 14:07:24;;;;;;;13.80;10.23;;;;;;;;;;5041204;28;20048;-70
2023/01/08 14:09:51;;;;;;;15.27;12.02;;;;;;;;;;5040562;28;20093;-70
2023/01/08 14:12:22;;;;;;;15.65;10.82;;;;;;;;;;5037771;28;20056;-68
2023/01/08 14:14:51;;;;;;;13.43;9.80;;;;;;;;;;5039896;28;20114;-70
2023/01/08 14:17:18;;;;;;;;;;;;;;;;;;5043105;28;20688;-70
2023/01/08 14:19:45;;;;;;;18.83;14.57;;;;;;;;;;5039198;28;19929;-70
2023/01/08 14:22:17;;;;;;;26.88;21.50;;;;;;;;;;5036994;28;20099;-70
2023/01/08 14:24:44;;;;;;;18.92;15.52;;;;;;;;;;5066630;28;20259;-69
2023/01/08 14:27:21;;;;;;;20.48;15.48;;;;;;;;;;5038269;28;20771;-69
2023/01/08 14:29:48;;;;;;;15.15;11.48;;;;;;;;;;5031710;28;20041;-70
2023/01/08 14:32:18;;;;;;;19.90;16.35;;;;;;;;;;5034926;28;20029;-69